BGSFBGGH

Guest
Details From BGSF - Kangerlussuaq
To BGGH - Nuuk
Flight Number -
Tags generated
Created
Modified
Stats Distance 171 nm / 317 km
Max Altitude 16,300 ft / 4,968 m
Waypoints 3
Social Downloads 0
Likes 0
Share VATSIM

Download

Looking for another format? Having issues loading an existing format? Contact us
Advertisement - Login to hide

Notes

Basic altitude profile: - Ascent Rate: 1500ft/min - Ascent Speed: 220kts - Cruise Altitude: 14000ft - Cruise Speed: 250kts - Descent Rate: 1800ft/min - Descent Speed: 240kts Options: - Use NATs: yes - Use PACOTS: yes - Use low airways: yes - Use high airways: yes

Route

BGSF ROSIE BGGH

ID Type Via Altitude (ft/m) Position (lat/lon) Dist (leg/tot) Name
O BGSF APT - 0 / 0 67.01160 / -50.71472 - / 0 nm Kangerlussuaq
ROSIE FIX - 16,300 / 4,968 65.53917 / -51.46611 90 / 90 nm
O BGGH APT - 0 / 0 64.19302 / -51.67645 81 / 171 nm Nuuk

Altitude Profile

Advertisement - Login to hide

Weather


0- 5 10 15 20 25 30 35+ Temperature / °C

Clouds and Precipitation
Forecast for 2018-12-15 06:00 UTC. Updated 6 hours ago

Ground ~20,000 ft ~40,000 ft Winds

BGSF

Details ICAO BGSF (SFJ)
Name Kangerlussuaq
Region Greenland
Timezone America/Godthab (UTC-3.0)
Stats Elevation 165 ft / 50 m (AMSL)
Location 67.017000° -50.689300°
Runways 1
Magnetic Variation 28.627° W

METAR

BGSF 150850Z AUTO 05003KT 9999NDV OVC150/// M18/M20 Q0991

Decode

TAF

Not found

Departure Runways

ID Width Length Bearing (true/mag) Surface Threshold Overrun Markings Lighting
10 197 ft / 60 m 9,171 ft / 2,795 m 61.58° / 90.21° ASPHALT 0 ft / 0 m 489 ft / 149 m PREC-APP EDGE THRESHOLD SSALR REIL-OMNI
28 197 ft / 60 m 9,171 ft / 2,795 m 241.63° / 270.26° ASPHALT 0 ft / 0 m 164 ft / 50 m PREC-APP EDGE THRESHOLD SSALF TDZ REIL-OMNI

BGGH

Details ICAO BGGH (GOH)
Name Nuuk - Godthab
Region Greenland
Timezone America/Godthab (UTC-3.0)
Stats Elevation 283 ft / 86 m (AMSL)
Location 64.190900° -51.678100°
Runways 1
Magnetic Variation 26.659° W

METAR

BGGH 150850Z 15009KT 130V210 9999 FEW030 BKN040 00/M05 Q0989

Decode

TAF

Not found

Destination Runways

ID Width Length Bearing (true/mag) Surface Threshold Overrun Markings Lighting
05 98 ft / 30 m 3,120 ft / 951 m 19.56° / 46.21° CONCRETE 0 ft / 0 m 0 ft / 0 m APP EDGE THRESHOLD
23 98 ft / 30 m 3,120 ft / 951 m 199.56° / 226.22° CONCRETE 0 ft / 0 m 0 ft / 0 m APP EDGE THRESHOLD MALSR

Popular Alternatives